Time;durP1;ratioP1;P1;durP2;ratioP2;P2;SDS_P1;SDS_P2;PMS_P1;PMS_P2;Temp;Humidity;BMP_temperature;BMP_pressure;BME280_temperature;BME280_humidity;BME280_pressure;Samples;Min_cycle;Max_cycle;Signal;HPM_P1;HPM_P2
2023/07/27 00:02:11;;;;;;;7.27;5.53;;;;;;;;;;5033136;28;20174;-70
2023/07/27 00:04:37;;;;;;;8.53;5.60;;;;;;;;;;5015199;28;20180;-69
2023/07/27 00:07:04;;;;;;;6.03;4.80;;;;;;;;;;5032791;28;20182;-69
2023/07/27 00:09:30;;;;;;;15.13;5.37;;;;;;;;;;5015065;28;20668;-69
2023/07/27 00:11:56;;;;;;;7.80;5.43;;;;;;;;;;5034666;28;20199;-69
2023/07/27 00:14:22;;;;;;;6.57;4.90;;;;;;;;;;5037117;28;20187;-69
2023/07/27 00:16:48;;;;;;;10.83;5.07;;;;;;;;;;5036822;28;20556;-70
2023/07/27 00:19:14;;;;;;;5.70;5.10;;;;;;;;;;5036888;28;20579;-69
2023/07/27 00:21:40;;;;;;;8.80;5.57;;;;;;;;;;5036583;28;20202;-69
2023/07/27 00:24:06;;;;;;;6.20;4.93;;;;;;;;;;5036876;28;20181;-70
2023/07/27 00:26:32;;;;;;;8.37;5.23;;;;;;;;;;5018932;28;20179;-69
2023/07/27 00:28:58;;;;;;;7.83;5.23;;;;;;;;;;5036489;28;20292;-69
2023/07/27 00:31:24;;;;;;;9.10;4.83;;;;;;;;;;5018746;28;20615;-69
2023/07/27 00:33:50;;;;;;;9.87;5.17;;;;;;;;;;5037786;28;20548;-69
2023/07/27 00:36:16;;;;;;;10.63;5.37;;;;;;;;;;5038748;28;20530;-69
2023/07/27 00:38:42;;;;;;;9.77;5.17;;;;;;;;;;5042623;28;20155;-69
2023/07/27 00:41:08;;;;;;;9.80;4.90;;;;;;;;;;5020921;28;20310;-69
2023/07/27 00:43:34;;;;;;;6.93;4.70;;;;;;;;;;5036447;28;20258;-69
2023/07/27 00:46:00;;;;;;;6.17;4.57;;;;;;;;;;5036598;28;20211;-69
2023/07/27 00:48:26;;;;;;;7.93;3.83;;;;;;;;;;5036224;28;20176;-70
2023/07/27 00:50:54;;;;;;;7.17;4.80;;;;;;;;;;5018318;28;20253;-70
2023/07/27 00:53:20;;;;;;;7.77;4.10;;;;;;;;;;5036104;28;20278;-70
2023/07/27 00:55:46;;;;;;;6.53;4.00;;;;;;;;;;5018374;28;20708;-69
2023/07/27 00:58:13;;;;;;;5.20;3.83;;;;;;;;;;5036038;28;20229;-70
2023/07/27 01:00:42;;;;;;;7.50;4.03;;;;;;;;;;5018110;28;20325;-69
2023/07/27 01:03:08;;;;;;;7.13;3.93;;;;;;;;;;5018107;28;20290;-69
2023/07/27 01:05:34;;;;;;;5.37;3.90;;;;;;;;;;5035882;28;20175;-69
2023/07/27 01:08:00;;;;;;;4.67;3.90;;;;;;;;;;5018018;28;20270;-69
2023/07/27 01:10:46;;;;;;;6.40;4.00;;;;;;;;;;5035826;28;20249;-69
2023/07/27 01:13:21;;;;;;;5.67;3.57;;;;;;;;;;5018408;28;20278;-69
2023/07/27 01:15:50;;;;;;;5.30;3.90;;;;;;;;;;5018033;28;20183;-69
2023/07/27 01:18:23;;;;;;;4.80;3.87;;;;;;;;;;5035638;28;20645;-69
2023/07/27 01:21:15;;;;;;;6.37;3.40;;;;;;;;;;5035556;28;20217;-69
2023/07/27 01:23:50;;;;;;;5.97;3.90;;;;;;;;;;5004637;28;20246;-69
2023/07/27 01:26:25;;;;;;;7.53;3.73;;;;;;;;;;5017818;28;20185;-69
2023/07/27 01:29:09;;;;;;;7.40;4.20;;;;;;;;;;5035444;28;20220;-69
2023/07/27 01:31:41;;;;;;;7.97;3.93;;;;;;;;;;5017687;28;20286;-70
2023/07/27 01:34:11;;;;;;;4.97;4.07;;;;;;;;;;5017912;28;20198;-69
2023/07/27 01:36:38;;;;;;;11.60;4.80;;;;;;;;;;5035317;28;20197;-69
2023/07/27 01:39:06;;;;;;;5.87;4.00;;;;;;;;;;5035270;28;20310;-69
2023/07/27 01:41:33;;;;;;;11.60;4.00;;;;;;;;;;5035291;28;20249;-70
2023/07/27 01:44:01;;;;;;;10.20;4.20;;;;;;;;;;5035555;28;20175;-69
2023/07/27 01:46:28;;;;;;;6.90;4.03;;;;;;;;;;5035542;28;20171;-70
2023/07/27 01:48:55;;;;;;;9.13;4.30;;;;;;;;;;5035167;28;20199;-70
2023/07/27 01:51:21;;;;;;;6.47;4.43;;;;;;;;;;5035149;28;20253;-70
2023/07/27 01:53:48;;;;;;;6.40;4.00;;;;;;;;;;5035211;28;20240;-70
2023/07/27 01:56:14;;;;;;;7.30;4.23;;;;;;;;;;5035144;28;20183;-70
2023/07/27 01:58:41;;;;;;;8.53;3.93;;;;;;;;;;5034939;28;20253;-70
2023/07/27 02:01:07;;;;;;;7.47;4.47;;;;;;;;;;5036886;28;20201;-70
2023/07/27 02:03:34;;;;;;;6.17;4.20;;;;;;;;;;5037618;28;20590;-70
2023/07/27 02:06:00;;;;;;;6.00;4.10;;;;;;;;;;5017999;28;20210;-70
2023/07/27 02:08:26;;;;;;;7.23;4.30;;;;;;;;;;5017167;28;20190;-70
2023/07/27 02:10:55;;;;;;;8.07;4.77;;;;;;;;;;5034775;28;20685;-70
2023/07/27 02:13:23;;;;;;;6.53;4.80;;;;;;;;;;5034795;28;20258;-70
2023/07/27 02:16:05;;;;;;;8.73;4.50;;;;;;;;;;5034632;28;20229;-69
2023/07/27 02:18:32;;;;;;;6.83;4.97;;;;;;;;;;5016875;28;20253;-70
2023/07/27 02:20:58;;;;;;;7.63;5.00;;;;;;;;;;5034512;28;20206;-70
2023/07/27 02:23:25;;;;;;;7.57;4.87;;;;;;;;;;5034888;28;20210;-70
2023/07/27 02:25:51;;;;;;;9.63;5.40;;;;;;;;;;5034694;28;20664;-70
2023/07/27 02:28:17;;;;;;;8.43;5.23;;;;;;;;;;5017175;28;20241;-70
2023/07/27 02:30:43;;;;;;;7.70;4.90;;;;;;;;;;5034452;28;20656;-70
2023/07/27 02:33:09;;;;;;;7.33;5.57;;;;;;;;;;5034513;28;20190;-71
2023/07/27 02:35:34;;;;;;;6.97;5.47;;;;;;;;;;5017424;28;20179;-71
2023/07/27 02:38:00;;;;;;;8.97;5.47;;;;;;;;;;5016655;28;20179;-71
2023/07/27 02:40:26;;;;;;;10.40;5.50;;;;;;;;;;5034056;28;20207;-71
2023/07/27 02:42:52;;;;;;;7.73;5.67;;;;;;;;;;5034192;28;20639;-71
2023/07/27 02:45:18;;;;;;;7.60;5.50;;;;;;;;;;5034194;28;20579;-71
2023/07/27 02:47:44;;;;;;;12.33;6.23;;;;;;;;;;5034137;28;20543;-71
2023/07/27 02:50:10;;;;;;;8.87;5.97;;;;;;;;;;5033963;28;20198;-71
2023/07/27 02:52:36;;;;;;;11.20;5.90;;;;;;;;;;5033972;28;20175;-71
2023/07/27 02:55:02;;;;;;;11.00;6.03;;;;;;;;;;5033985;28;20182;-71
2023/07/27 02:57:28;;;;;;;7.53;5.60;;;;;;;;;;5016175;28;20225;-71
2023/07/27 02:59:54;;;;;;;12.83;6.30;;;;;;;;;;5033928;28;20595;-71
2023/07/27 03:02:20;;;;;;;7.37;6.10;;;;;;;;;;5016026;28;20183;-71
2023/07/27 03:04:46;;;;;;;8.43;5.80;;;;;;;;;;5033659;28;20182;-71
2023/07/27 03:07:12;;;;;;;9.73;6.40;;;;;;;;;;5015975;28;20179;-71
2023/07/27 03:09:38;;;;;;;9.37;6.20;;;;;;;;;;5034435;28;20187;-70
2023/07/27 03:12:04;;;;;;;10.27;7.13;;;;;;;;;;5017812;28;20641;-71
2023/07/27 03:14:30;;;;;;;13.87;7.40;;;;;;;;;;5016876;28;20183;-71
2023/07/27 03:16:56;;;;;;;15.70;6.97;;;;;;;;;;5034111;28;20189;-71
2023/07/27 03:19:22;;;;;;;12.93;7.30;;;;;;;;;;5034234;28;20199;-71
2023/07/27 03:21:48;;;;;;;11.13;7.73;;;;;;;;;;5018013;28;20298;-71
2023/07/27 03:24:16;;;;;;;10.00;7.70;;;;;;;;;;5034057;28;20629;-71
2023/07/27 03:26:43;;;;;;;12.07;8.33;;;;;;;;;;5033750;28;20171;-72
2023/07/27 03:29:09;;;;;;;11.83;7.83;;;;;;;;;;5033786;28;20179;-71
2023/07/27 03:31:34;;;;;;;11.40;7.90;;;;;;;;;;5033312;28;20210;-71
2023/07/27 03:34:00;;;;;;;12.97;8.27;;;;;;;;;;5033210;28;20262;-71
2023/07/27 03:36:26;;;;;;;11.00;7.80;;;;;;;;;;5033189;28;20179;-71
2023/07/27 03:38:52;;;;;;;11.57;8.07;;;;;;;;;;5015676;28;20207;-71
2023/07/27 03:41:18;;;;;;;14.53;7.80;;;;;;;;;;5015531;28;20282;-71
2023/07/27 03:43:44;;;;;;;14.07;8.10;;;;;;;;;;5033198;28;20552;-71
2023/07/27 03:46:10;;;;;;;12.80;7.97;;;;;;;;;;5033349;28;20302;-71
2023/07/27 03:48:36;;;;;;;15.60;8.33;;;;;;;;;;5033196;28;20198;-71
2023/07/27 03:51:03;;;;;;;15.03;8.37;;;;;;;;;;5033102;28;20195;-71
2023/07/27 03:53:29;;;;;;;14.33;9.03;;;;;;;;;;5033428;28;20178;-70
2023/07/27 03:55:56;;;;;;;14.80;9.47;;;;;;;;;;5033124;28;20182;-71
2023/07/27 03:58:22;;;;;;;13.30;9.97;;;;;;;;;;5015396;28;20187;-71
2023/07/27 04:00:48;;;;;;;16.07;9.80;;;;;;;;;;5015135;28;20243;-70
2023/07/27 04:03:14;;;;;;;15.83;9.53;;;;;;;;;;5032988;28;20268;-70
2023/07/27 04:05:40;;;;;;;13.73;11.13;;;;;;;;;;5032961;28;20175;-71
2023/07/27 04:08:06;;;;;;;15.97;11.80;;;;;;;;;;5015259;28;20175;-72
2023/07/27 04:10:32;;;;;;;20.20;12.60;;;;;;;;;;5032952;28;20297;-71
2023/07/27 04:12:58;;;;;;;18.13;12.07;;;;;;;;;;5015563;28;20185;-71
2023/07/27 04:15:24;;;;;;;16.37;12.40;;;;;;;;;;5033630;28;20175;-71
2023/07/27 04:17:50;;;;;;;20.40;13.03;;;;;;;;;;5032877;28;20180;-71
2023/07/27 04:20:16;;;;;;;20.87;13.30;;;;;;;;;;5033130;28;20256;-71
2023/07/27 04:22:42;;;;;;;21.83;14.13;;;;;;;;;;5032826;28;20638;-71
2023/07/27 04:25:08;;;;;;;20.17;13.07;;;;;;;;;;5033381;28;20629;-71
2023/07/27 04:27:35;;;;;;;23.20;13.50;;;;;;;;;;5015197;28;20171;-71
2023/07/27 04:30:00;;;;;;;21.07;11.67;;;;;;;;;;5015043;28;20231;-71
2023/07/27 04:32:26;;;;;;;17.37;10.97;;;;;;;;;;5032822;28;20230;-71
2023/07/27 04:34:52;;;;;;;22.33;11.23;;;;;;;;;;5032786;28;20205;-71
2023/07/27 04:37:20;;;;;;;17.27;10.40;;;;;;;;;;5015298;28;20182;-71
2023/07/27 04:39:46;;;;;;;17.90;10.97;;;;;;;;;;5032831;28;20199;-71
2023/07/27 04:42:12;;;;;;;20.60;10.40;;;;;;;;;;5032983;28;20606;-71
2023/07/27 04:44:38;;;;;;;13.20;9.73;;;;;;;;;;5032726;28;20262;-71
2023/07/27 04:47:04;;;;;;;13.87;9.73;;;;;;;;;;5032756;28;20175;-71
2023/07/27 04:49:30;;;;;;;14.23;10.10;;;;;;;;;;5032913;28;20176;-71
2023/07/27 04:51:56;;;;;;;15.83;10.23;;;;;;;;;;5015482;28;20190;-71
2023/07/27 04:54:23;;;;;;;18.17;10.50;;;;;;;;;;5033169;28;20183;-71
2023/07/27 04:56:49;;;;;;;14.83;10.60;;;;;;;;;;5032803;28;20183;-71
2023/07/27 04:59:15;;;;;;;16.87;10.67;;;;;;;;;;5034687;28;20205;-71
2023/07/27 05:01:41;;;;;;;15.57;10.70;;;;;;;;;;5018624;28;20227;-71
2023/07/27 05:04:07;;;;;;;18.20;11.13;;;;;;;;;;5036301;28;20186;-71
2023/07/27 05:06:34;;;;;;;17.97;9.57;;;;;;;;;;5037424;28;20182;-71
2023/07/27 05:09:00;;;;;;;14.13;10.23;;;;;;;;;;5036313;28;20176;-71
2023/07/27 05:11:26;;;;;;;15.57;9.73;;;;;;;;;;5036133;28;20238;-71
2023/07/27 05:13:52;;;;;;;15.53;9.93;;;;;;;;;;5036741;28;20179;-72
2023/07/27 05:16:18;;;;;;;17.47;10.43;;;;;;;;;;5036464;28;20305;-71
2023/07/27 05:18:44;;;;;;;17.00;9.67;;;;;;;;;;5018465;28;20236;-71
2023/07/27 05:21:10;;;;;;;21.37;10.87;;;;;;;;;;5039038;28;20198;-71
2023/07/27 05:23:36;;;;;;;14.10;10.23;;;;;;;;;;5024085;28;20185;-71
2023/07/27 05:26:03;;;;;;;16.07;11.10;;;;;;;;;;5044321;28;20183;-71
2023/07/27 05:28:28;;;;;;;15.57;10.70;;;;;;;;;;5039960;28;20171;-71
2023/07/27 05:30:54;;;;;;;15.97;10.43;;;;;;;;;;5018428;28;20207;-71
2023/07/27 05:33:21;;;;;;;16.67;9.83;;;;;;;;;;5037395;28;20230;-71
2023/07/27 05:35:48;;;;;;;14.07;9.57;;;;;;;;;;5036314;28;20179;-71
2023/07/27 05:38:14;;;;;;;16.30;10.33;;;;;;;;;;5018233;28;20179;-71
2023/07/27 05:40:40;;;;;;;18.50;10.27;;;;;;;;;;5017935;28;20214;-71
2023/07/27 05:43:06;;;;;;;13.47;10.50;;;;;;;;;;5035963;28;20282;-72
2023/07/27 05:45:32;;;;;;;16.33;10.30;;;;;;;;;;5035521;28;20206;-71
2023/07/27 05:47:58;;;;;;;13.77;10.57;;;;;;;;;;5035731;28;20201;-71
2023/07/27 05:50:25;;;;;;;13.90;10.00;;;;;;;;;;5017698;28;20199;-71
2023/07/27 05:52:51;;;;;;;17.40;10.73;;;;;;;;;;5017804;28;20585;-70
2023/07/27 05:55:17;;;;;;;15.87;11.50;;;;;;;;;;5035197;28;20190;-71
2023/07/27 05:57:43;;;;;;;14.60;11.27;;;;;;;;;;5017372;28;20189;-71
2023/07/27 06:00:09;;;;;;;18.60;10.73;;;;;;;;;;5018693;28;20218;-71
2023/07/27 06:02:35;;;;;;;18.73;12.10;;;;;;;;;;5017667;28;20599;-71
2023/07/27 06:05:01;;;;;;;15.10;12.37;;;;;;;;;;5035173;28;20175;-71
2023/07/27 06:07:27;;;;;;;17.87;14.30;;;;;;;;;;5034931;28;20171;-71
2023/07/27 06:09:53;;;;;;;20.67;14.33;;;;;;;;;;5016756;28;20609;-70
2023/07/27 06:12:19;;;;;;;22.97;15.57;;;;;;;;;;5035369;28;20310;-70
2023/07/27 06:14:45;;;;;;;24.17;17.53;;;;;;;;;;5035331;28;20643;-71
2023/07/27 06:17:11;;;;;;;25.70;18.53;;;;;;;;;;5034895;28;20229;-70
2023/07/27 06:19:37;;;;;;;25.90;18.03;;;;;;;;;;5034929;28;20285;-71
2023/07/27 06:22:03;;;;;;;23.20;18.00;;;;;;;;;;5017873;28;20214;-70
2023/07/27 06:24:29;;;;;;;23.03;17.90;;;;;;;;;;5035884;28;20532;-70
2023/07/27 06:26:55;;;;;;;22.57;18.37;;;;;;;;;;5017459;28;20233;-70
2023/07/27 06:29:21;;;;;;;26.97;21.83;;;;;;;;;;5035197;28;20626;-70
2023/07/27 06:31:47;;;;;;;26.37;20.37;;;;;;;;;;5034761;28;20747;-70
2023/07/27 06:34:13;;;;;;;24.57;20.27;;;;;;;;;;5016937;28;20290;-70
2023/07/27 06:36:39;;;;;;;22.67;18.83;;;;;;;;;;5034384;28;20245;-70
2023/07/27 06:39:05;;;;;;;26.77;19.57;;;;;;;;;;5016494;28;20229;-71
2023/07/27 06:41:31;;;;;;;31.37;22.70;;;;;;;;;;5034205;28;20572;-71
2023/07/27 06:43:57;;;;;;;32.97;24.27;;;;;;;;;;5016506;28;20179;-71
2023/07/27 06:46:24;;;;;;;30.53;24.43;;;;;;;;;;5016870;28;20328;-71
2023/07/27 06:48:51;;;;;;;23.87;19.33;;;;;;;;;;5016678;28;20175;-71
2023/07/27 06:51:17;;;;;;;15.13;13.63;;;;;;;;;;5034131;28;20661;-71
2023/07/27 06:53:43;;;;;;;14.43;12.27;;;;;;;;;;5035468;28;20179;-71
2023/07/27 06:56:09;;;;;;;11.73;10.50;;;;;;;;;;5034520;28;20175;-71
2023/07/27 06:58:35;;;;;;;11.40;10.30;;;;;;;;;;5034951;28;20664;-71
2023/07/27 07:01:01;;;;;;;13.63;10.17;;;;;;;;;;5016873;28;20241;-71
2023/07/27 07:03:27;;;;;;;11.30;9.00;;;;;;;;;;5021257;28;20209;-71
2023/07/27 07:05:56;;;;;;;9.57;7.90;;;;;;;;;;5018715;28;20187;-71
2023/07/27 07:08:22;;;;;;;10.63;7.80;;;;;;;;;;5034077;28;20179;-71
2023/07/27 07:10:48;;;;;;;10.23;7.97;;;;;;;;;;5016385;28;20233;-72
2023/07/27 07:13:14;;;;;;;8.73;7.93;;;;;;;;;;5033972;28;20237;-72
2023/07/27 07:15:40;;;;;;;11.53;8.43;;;;;;;;;;5033922;28;20549;-72
2023/07/27 07:18:06;;;;;;;12.03;9.40;;;;;;;;;;5033668;28;20175;-72
2023/07/27 07:20:32;;;;;;;11.23;9.37;;;;;;;;;;5033343;28;20218;-72
2023/07/27 07:22:58;;;;;;;13.17;10.10;;;;;;;;;;5033437;28;20262;-72
2023/07/27 07:25:24;;;;;;;11.43;9.47;;;;;;;;;;5033582;28;20225;-72
2023/07/27 07:27:50;;;;;;;10.47;8.73;;;;;;;;;;5033874;28;20175;-72
2023/07/27 07:30:16;;;;;;;11.93;9.17;;;;;;;;;;5033477;28;20290;-71
2023/07/27 07:32:42;;;;;;;9.63;8.63;;;;;;;;;;5033918;28;20261;-72
2023/07/27 07:35:08;;;;;;;10.10;9.03;;;;;;;;;;5033317;28;20217;-72
2023/07/27 07:37:34;;;;;;;9.67;8.67;;;;;;;;;;5033274;28;20182;-71
2023/07/27 07:40:01;;;;;;;10.03;8.67;;;;;;;;;;5033308;28;20231;-72
2023/07/27 07:42:27;;;;;;;11.93;9.43;;;;;;;;;;5015462;28;20708;-72
2023/07/27 07:44:53;;;;;;;11.13;9.53;;;;;;;;;;5033503;28;20641;-72
2023/07/27 07:47:19;;;;;;;10.70;9.60;;;;;;;;;;5017527;28;20175;-71
2023/07/27 07:49:45;;;;;;;11.07;9.77;;;;;;;;;;5033160;28;20182;-71
2023/07/27 07:52:13;;;;;;;11.83;10.20;;;;;;;;;;5033338;28;20175;-71
2023/07/27 07:54:39;;;;;;;12.63;9.63;;;;;;;;;;5033101;28;20186;-72
2023/07/27 07:57:05;;;;;;;10.90;9.87;;;;;;;;;;5033075;28;20182;-72
2023/07/27 07:59:31;;;;;;;9.53;8.63;;;;;;;;;;5015266;28;20210;-72
2023/07/27 08:01:57;;;;;;;10.47;9.03;;;;;;;;;;5033130;28;20175;-71
2023/07/27 08:04:23;;;;;;;9.87;9.07;;;;;;;;;;5015370;28;20312;-72
2023/07/27 08:06:49;;;;;;;9.90;9.00;;;;;;;;;;5033132;28;20198;-72
2023/07/27 08:09:19;;;;;;;9.47;8.57;;;;;;;;;;5015238;28;20212;-72
2023/07/27 08:11:45;;;;;;;13.40;11.70;;;;;;;;;;5015344;28;20703;-72
2023/07/27 08:14:11;;;;;;;10.90;9.80;;;;;;;;;;5033264;28;20180;-71
2023/07/27 08:16:37;;;;;;;11.80;10.57;;;;;;;;;;5032822;28;20266;-71
2023/07/27 08:19:03;;;;;;;12.83;11.53;;;;;;;;;;5032932;28;20372;-71
2023/07/27 08:21:29;;;;;;;10.30;9.30;;;;;;;;;;5032889;28;20662;-71
2023/07/27 08:23:55;;;;;;;15.57;12.17;;;;;;;;;;5015209;28;20190;-71
2023/07/27 08:26:21;;;;;;;17.17;15.43;;;;;;;;;;5032699;28;20178;-71
2023/07/27 08:28:48;;;;;;;20.13;16.80;;;;;;;;;;5015322;28;20175;-72
2023/07/27 08:31:14;;;;;;;11.67;10.47;;;;;;;;;;5033070;28;20233;-71
2023/07/27 08:33:40;;;;;;;8.97;7.60;;;;;;;;;;5035998;28;20625;-71
2023/07/27 08:36:05;;;;;;;8.83;7.93;;;;;;;;;;5036739;28;20186;-71
2023/07/27 08:38:31;;;;;;;8.63;7.83;;;;;;;;;;5020556;28;20627;-72
2023/07/27 08:40:58;;;;;;;9.03;7.27;;;;;;;;;;5036340;28;20222;-71
2023/07/27 08:43:24;;;;;;;8.27;7.47;;;;;;;;;;5036732;28;20186;-72
2023/07/27 08:45:51;;;;;;;7.17;5.80;;;;;;;;;;5018899;28;20183;-72
2023/07/27 08:48:17;;;;;;;5.90;5.30;;;;;;;;;;5018819;28;20201;-71
2023/07/27 08:50:44;;;;;;;5.87;5.27;;;;;;;;;;5036440;28;20581;-71
2023/07/27 08:53:10;;;;;;;6.60;5.03;;;;;;;;;;5036523;28;20194;-71
2023/07/27 08:55:36;;;;;;;5.03;4.53;;;;;;;;;;5018430;28;20186;-71
2023/07/27 08:58:02;;;;;;;6.47;4.90;;;;;;;;;;5036483;28;20689;-71
2023/07/27 09:00:32;;;;;;;5.63;5.13;;;;;;;;;;5036188;28;20297;-71
2023/07/27 09:02:59;;;;;;;5.10;4.67;;;;;;;;;;5018459;28;20203;-71
2023/07/27 09:05:38;;;;;;;4.77;4.37;;;;;;;;;;5036084;28;20206;-71
2023/07/27 09:08:08;;;;;;;4.20;3.80;;;;;;;;;;5035995;28;20622;-71
2023/07/27 09:10:35;;;;;;;6.00;4.20;;;;;;;;;;5018176;28;20309;-71
2023/07/27 09:13:02;;;;;;;5.37;4.17;;;;;;;;;;5018258;28;20183;-71
2023/07/27 09:15:28;;;;;;;5.37;3.60;;;;;;;;;;5036157;28;20175;-71
2023/07/27 09:17:58;;;;;;;3.70;3.37;;;;;;;;;;5018109;28;20183;-72
2023/07/27 09:20:24;;;;;;;3.70;3.40;;;;;;;;;;5058598;22;20229;-65
2023/07/27 09:22:50;;;;;;;4.73;4.00;;;;;;;;;;5057587;28;20183;-64
2023/07/27 09:25:21;;;;;;;4.17;3.77;;;;;;;;;;5057500;28;20183;-64
2023/07/27 09:27:47;;;;;;;4.50;3.43;;;;;;;;;;5055603;28;20174;-62
2023/07/27 09:30:16;;;;;;;2.63;2.43;;;;;;;;;;5056893;28;20202;-64
2023/07/27 09:32:42;;;;;;;3.87;2.40;;;;;;;;;;5057017;28;20181;-65
2023/07/27 09:35:15;;;;;;;3.00;2.70;;;;;;;;;;5058251;28;20178;-65
2023/07/27 09:37:45;;;;;;;3.20;3.00;;;;;;;;;;5056914;28;20205;-64
2023/07/27 09:40:15;;;;;;;3.37;2.57;;;;;;;;;;5055893;28;20210;-64
2023/07/27 09:42:42;;;;;;;3.30;3.00;;;;;;;;;;5055986;28;20694;-65
2023/07/27 09:45:08;;;;;;;3.60;3.30;;;;;;;;;;5054790;28;20556;-65
2023/07/27 09:47:35;;;;;;;3.10;2.90;;;;;;;;;;5054061;28;20207;-65
2023/07/27 09:50:01;;;;;;;4.30;3.60;;;;;;;;;;5055543;28;20218;-65
2023/07/27 09:52:28;;;;;;;3.60;3.27;;;;;;;;;;5054747;28;20178;-66
2023/07/27 09:54:57;;;;;;;3.50;3.00;;;;;;;;;;5054189;28;20566;-65
2023/07/27 09:57:24;;;;;;;3.37;3.10;;;;;;;;;;5055623;28;20178;-65
2023/07/27 09:59:50;;;;;;;3.77;3.47;;;;;;;;;;5053667;28;20214;-65
2023/07/27 10:02:16;;;;;;;3.47;3.23;;;;;;;;;;5053875;28;20669;-65
2023/07/27 10:04:43;;;;;;;4.00;3.70;;;;;;;;;;5053759;28;20237;-64
2023/07/27 10:07:10;;;;;;;3.47;2.87;;;;;;;;;;5055168;28;20644;-64
2023/07/27 10:09:39;;;;;;;2.43;2.30;;;;;;;;;;5053962;28;20178;-64
2023/07/27 10:12:05;;;;;;;2.80;2.50;;;;;;;;;;5055074;28;20205;-64
2023/07/27 10:14:32;;;;;;;2.63;2.40;;;;;;;;;;5053660;28;20191;-66
2023/07/27 10:17:08;;;;;;;3.00;2.80;;;;;;;;;;5053561;28;20208;-66
2023/07/27 10:19:43;;;;;;;2.90;2.70;;;;;;;;;;5054656;28;20205;-64
2023/07/27 10:22:11;;;;;;;3.50;3.30;;;;;;;;;;5055046;28;20186;-64
2023/07/27 10:24:50;;;;;;;5.00;4.13;;;;;;;;;;5054890;28;20170;-65
2023/07/27 10:27:17;;;;;;;3.27;3.07;;;;;;;;;;5053728;28;20174;-65
2023/07/27 10:29:48;;;;;;;3.40;3.10;;;;;;;;;;5053442;28;20188;-64
2023/07/27 10:32:14;;;;;;;3.87;3.57;;;;;;;;;;5053421;28;20273;-63
2023/07/27 10:34:40;;;;;;;5.03;4.60;;;;;;;;;;5054563;28;20723;-63
2023/07/27 10:37:08;;;;;;;4.50;4.10;;;;;;;;;;5054592;28;20687;-64
2023/07/27 10:39:47;;;;;;;4.87;4.37;;;;;;;;;;5053025;28;20198;-64
2023/07/27 10:42:16;;;;;;;5.20;4.80;;;;;;;;;;5054530;28;20258;-63
2023/07/27 10:44:55;;;;;;;4.43;4.03;;;;;;;;;;5054738;28;20175;-65
2023/07/27 10:47:22;;;;;;;3.93;3.53;;;;;;;;;;5054837;28;20209;-65
2023/07/27 10:49:49;;;;;;;4.10;3.70;;;;;;;;;;5053759;28;20205;-65
2023/07/27 10:52:20;;;;;;;4.97;3.87;;;;;;;;;;5054865;28;20178;-65
2023/07/27 10:54:46;;;;;;;4.30;3.90;;;;;;;;;;5053466;28;20179;-63
2023/07/27 10:57:13;;;;;;;5.17;4.70;;;;;;;;;;5053975;28;20182;-65
2023/07/27 10:59:40;;;;;;;8.97;4.47;;;;;;;;;;5055103;28;20293;-64
2023/07/27 11:02:12;;;;;;;5.50;4.70;;;;;;;;;;5053773;28;20209;-64
2023/07/27 11:04:41;;;;;;;5.23;4.73;;;;;;;;;;5054610;28;20248;-64
2023/07/27 11:07:09;;;;;;;6.23;5.63;;;;;;;;;;5054309;28;20175;-65
2023/07/27 11:09:35;;;;;;;6.10;5.60;;;;;;;;;;5053174;28;20675;-63
2023/07/27 11:12:01;;;;;;;6.60;5.83;;;;;;;;;;5054395;28;20182;-64
2023/07/27 11:14:27;;;;;;;6.67;6.17;;;;;;;;;;5055246;28;20522;-64
2023/07/27 11:16:53;;;;;;;7.53;6.20;;;;;;;;;;5054584;28;20182;-64
2023/07/27 11:19:20;;;;;;;7.20;6.60;;;;;;;;;;5054831;28;20209;-64
2023/07/27 11:21:46;;;;;;;6.77;6.17;;;;;;;;;;5054841;28;20260;-64
2023/07/27 11:24:15;;;;;;;6.90;6.30;;;;;;;;;;5054312;28;20179;-65
2023/07/27 11:26:41;;;;;;;7.57;6.97;;;;;;;;;;5054148;28;20228;-64
2023/07/27 11:29:08;;;;;;;7.10;6.50;;;;;;;;;;5052695;28;20178;-65
2023/07/27 11:31:34;;;;;;;7.37;6.77;;;;;;;;;;5053668;28;20197;-64
2023/07/27 11:34:00;;;;;;;9.13;8.23;;;;;;;;;;5052393;28;20187;-62
2023/07/27 11:36:28;;;;;;;6.10;5.60;;;;;;;;;;5053727;28;20175;-64
2023/07/27 11:38:55;;;;;;;6.80;6.20;;;;;;;;;;5052302;28;20324;-64
2023/07/27 11:41:21;;;;;;;5.90;5.20;;;;;;;;;;5053637;28;20281;-65
2023/07/27 11:43:50;;;;;;;5.87;5.27;;;;;;;;;;5052123;28;20648;-64
2023/07/27 11:46:16;;;;;;;4.40;4.00;;;;;;;;;;5053686;28;20249;-64
2023/07/27 11:48:42;;;;;;;4.90;3.80;;;;;;;;;;5053661;28;20315;-64
2023/07/27 11:51:08;;;;;;;3.53;3.33;;;;;;;;;;5053614;28;20202;-64
2023/07/27 11:53:34;;;;;;;3.40;2.30;;;;;;;;;;5052292;28;20364;-64
2023/07/27 11:56:00;;;;;;;2.90;2.10;;;;;;;;;;5053702;28;20214;-63
2023/07/27 11:58:27;;;;;;;2.10;1.90;;;;;;;;;;5051983;28;20178;-63
2023/07/27 12:00:54;;;;;;;2.40;1.80;;;;;;;;;;5053159;28;20210;-63
2023/07/27 12:03:21;;;;;;;3.37;2.00;;;;;;;;;;5053147;28;20175;-64
2023/07/27 12:05:47;;;;;;;1.73;1.63;;;;;;;;;;5053511;28;20196;-63
2023/07/27 12:08:18;;;;;;;2.13;1.67;;;;;;;;;;5054255;28;20181;-64
2023/07/27 12:11:01;;;;;;;1.70;1.60;;;;;;;;;;5055914;28;20202;-64
2023/07/27 12:13:27;;;;;;;2.10;1.70;;;;;;;;;;5055860;28;20177;-64
2023/07/27 12:16:00;;;;;;;1.80;1.60;;;;;;;;;;5056981;28;20178;-64
2023/07/27 12:18:27;;;;;;;1.93;1.50;;;;;;;;;;5057213;28;20174;-64
2023/07/27 12:20:54;;;;;;;1.60;1.50;;;;;;;;;;5057060;28;20214;-64
2023/07/27 12:23:20;;;;;;;1.90;1.80;;;;;;;;;;5055944;28;20272;-63
2023/07/27 12:25:46;;;;;;;1.80;1.63;;;;;;;;;;5057151;28;20581;-64
2023/07/27 12:28:12;;;;;;;2.33;1.40;;;;;;;;;;5057121;28;20248;-64
2023/07/27 12:30:38;;;;;;;1.70;1.60;;;;;;;;;;5057147;28;20197;-63
2023/07/27 12:33:04;;;;;;;2.00;1.87;;;;;;;;;;5057340;28;20179;-63
2023/07/27 12:35:30;;;;;;;2.47;2.27;;;;;;;;;;5057433;28;20186;-64
2023/07/27 12:37:57;;;;;;;3.43;2.20;;;;;;;;;;5056658;28;20698;-63
2023/07/27 12:40:24;;;;;;;2.23;2.03;;;;;;;;;;5056703;28;20202;-63
2023/07/27 12:42:49;;;;;;;2.53;2.33;;;;;;;;;;5055477;28;20277;-64
2023/07/27 12:45:16;;;;;;;2.53;2.33;;;;;;;;;;5056991;28;20218;-64
2023/07/27 12:47:43;;;;;;;7.90;2.40;;;;;;;;;;5056668;28;20170;-64
2023/07/27 12:50:10;;;;;;;2.80;2.60;;;;;;;;;;5056590;28;20198;-64
2023/07/27 12:52:36;;;;;;;2.90;2.53;;;;;;;;;;5055161;28;20273;-64
2023/07/27 12:55:02;;;;;;;3.10;2.90;;;;;;;;;;5056749;28;20213;-63
2023/07/27 12:57:28;;;;;;;2.73;2.53;;;;;;;;;;5055118;28;20179;-63
2023/07/27 12:59:54;;;;;;;3.37;2.57;;;;;;;;;;5056337;28;20213;-64
2023/07/27 13:02:20;;;;;;;3.80;2.37;;;;;;;;;;5056411;28;20549;-64
2023/07/27 13:04:46;;;;;;;3.07;2.60;;;;;;;;;;5056358;28;20176;-64
2023/07/27 13:07:13;;;;;;;3.50;2.73;;;;;;;;;;5056760;28;20174;-64
2023/07/27 13:09:40;;;;;;;2.43;2.33;;;;;;;;;;5055417;28;20218;-63
2023/07/27 13:12:06;;;;;;;2.37;2.27;;;;;;;;;;5055350;28;20562;-63
2023/07/27 13:14:32;;;;;;;2.60;2.40;;;;;;;;;;5055055;28;20649;-64
2023/07/27 13:16:58;;;;;;;2.60;2.40;;;;;;;;;;5056312;28;20178;-63
2023/07/27 13:19:24;;;;;;;3.57;2.40;;;;;;;;;;5055401;28;20268;-63
2023/07/27 13:21:50;;;;;;;2.70;2.50;;;;;;;;;;5056753;28;20214;-64
2023/07/27 13:24:16;;;;;;;2.47;2.27;;;;;;;;;;5056683;28;20171;-63
2023/07/27 13:26:42;;;;;;;2.63;2.43;;;;;;;;;;5056345;28;20205;-63
2023/07/27 13:29:10;;;;;;;2.90;2.70;;;;;;;;;;5055120;28;20181;-64
2023/07/27 13:31:36;;;;;;;2.70;2.50;;;;;;;;;;5055933;28;20194;-63
2023/07/27 13:34:02;;;;;;;3.30;3.00;;;;;;;;;;5055723;28;20321;-64
2023/07/27 13:36:28;;;;;;;3.33;3.07;;;;;;;;;;5054450;28;20174;-64
2023/07/27 13:38:54;;;;;;;5.00;3.07;;;;;;;;;;5055563;28;20209;-63
2023/07/27 13:41:20;;;;;;;4.00;3.70;;;;;;;;;;5055319;28;20218;-64
2023/07/27 13:43:46;;;;;;;4.83;4.00;;;;;;;;;;5055545;28;20183;-64
2023/07/27 13:46:12;;;;;;;4.00;3.70;;;;;;;;;;5054271;28;20175;-63
2023/07/27 13:48:38;;;;;;;7.00;4.20;;;;;;;;;;5055714;28;20185;-64
2023/07/27 13:51:04;;;;;;;4.43;4.13;;;;;;;;;;5055556;28;20251;-63
2023/07/27 13:53:30;;;;;;;3.80;3.50;;;;;;;;;;5054182;28;20285;-63
2023/07/27 13:55:56;;;;;;;3.83;3.53;;;;;;;;;;5055392;28;20564;-64
2023/07/27 13:58:22;;;;;;;4.23;3.67;;;;;;;;;;5054034;28;20182;-63
2023/07/27 14:00:49;;;;;;;4.43;3.43;;;;;;;;;;5055030;28;20214;-62
2023/07/27 14:03:15;;;;;;;8.27;3.27;;;;;;;;;;5053759;28;20640;-62
2023/07/27 14:05:41;;;;;;;3.30;3.00;;;;;;;;;;5055310;28;20189;-62
2023/07/27 14:08:07;;;;;;;4.23;2.93;;;;;;;;;;5054981;28;20593;-61
2023/07/27 14:10:33;;;;;;;3.63;3.00;;;;;;;;;;5053549;28;20605;-62
2023/07/27 14:12:59;;;;;;;3.13;2.77;;;;;;;;;;5055243;28;20186;-62
2023/07/27 14:15:25;;;;;;;4.07;2.90;;;;;;;;;;5054961;28;20175;-62
2023/07/27 14:17:51;;;;;;;3.97;3.10;;;;;;;;;;5054885;28;20189;-62
2023/07/27 14:20:17;;;;;;;4.00;2.90;;;;;;;;;;5054830;28;20578;-62
2023/07/27 14:22:43;;;;;;;3.60;2.80;;;;;;;;;;5054659;28;20186;-62
2023/07/27 14:25:09;;;;;;;3.00;2.80;;;;;;;;;;5053412;28;20202;-62
2023/07/27 14:27:35;;;;;;;4.63;2.57;;;;;;;;;;5054448;28;20185;-62
2023/07/27 14:30:04;;;;;;;3.40;3.10;;;;;;;;;;5054217;28;20273;-63
2023/07/27 14:32:30;;;;;;;3.30;3.00;;;;;;;;;;5054988;28;20249;-63
2023/07/27 14:34:56;;;;;;;3.50;3.10;;;;;;;;;;5053461;28;20182;-63